sensor_id;sensor_type;location;lat;lon;timestamp;temperature;humidity
43346;DHT22;28937;51.160;4.146;2023-09-19T00:01:29;19.30;95.00
43346;DHT22;28937;51.160;4.146;2023-09-19T00:03:57;19.30;95.00
43346;DHT22;28937;51.160;4.146;2023-09-19T00:06:23;19.30;95.10
43346;DHT22;28937;51.160;4.146;2023-09-19T00:08:51;19.30;95.10
43346;DHT22;28937;51.160;4.146;2023-09-19T00:11:17;19.20;94.90
43346;DHT22;28937;51.160;4.146;2023-09-19T00:13:43;19.30;94.90
43346;DHT22;28937;51.160;4.146;2023-09-19T00:16:10;19.30;94.70
43346;DHT22;28937;51.160;4.146;2023-09-19T00:18:37;19.20;94.70
43346;DHT22;28937;51.160;4.146;2023-09-19T00:21:03;19.30;94.50
43346;DHT22;28937;51.160;4.146;2023-09-19T00:23:30;19.20;94.50
43346;DHT22;28937;51.160;4.146;2023-09-19T00:26:00;19.20;94.40
43346;DHT22;28937;51.160;4.146;2023-09-19T00:28:26;19.20;94.30
43346;DHT22;28937;51.160;4.146;2023-09-19T00:30:52;19.10;94.10
43346;DHT22;28937;51.160;4.146;2023-09-19T00:33:21;19.10;94.00
43346;DHT22;28937;51.160;4.146;2023-09-19T00:35:56;19.10;93.90
43346;DHT22;28937;51.160;4.146;2023-09-19T00:38:28;19.10;94.00
43346;DHT22;28937;51.160;4.146;2023-09-19T00:40:54;19.10;93.70
43346;DHT22;28937;51.160;4.146;2023-09-19T00:43:20;19.10;93.70
43346;DHT22;28937;51.160;4.146;2023-09-19T00:45:49;19.10;93.70
43346;DHT22;28937;51.160;4.146;2023-09-19T00:48:15;19.00;93.70
43346;DHT22;28937;51.160;4.146;2023-09-19T00:50:43;19.00;93.60
43346;DHT22;28937;51.160;4.146;2023-09-19T00:53:09;19.00;93.50
43346;DHT22;28937;51.160;4.146;2023-09-19T00:55:39;19.00;93.50
43346;DHT22;28937;51.160;4.146;2023-09-19T00:58:07;19.00;93.50
43346;DHT22;28937;51.160;4.146;2023-09-19T01:00:34;19.00;93.80
43346;DHT22;28937;51.160;4.146;2023-09-19T01:03:00;18.90;93.70
43346;DHT22;28937;51.160;4.146;2023-09-19T01:05:29;18.90;93.70
43346;DHT22;28937;51.160;4.146;2023-09-19T01:07:55;18.90;93.80
43346;DHT22;28937;51.160;4.146;2023-09-19T01:10:22;18.90;93.90
43346;DHT22;28937;51.160;4.146;2023-09-19T01:16:14;18.80;94.10
43346;DHT22;28937;51.160;4.146;2023-09-19T01:18:29;18.80;94.10
43346;DHT22;28937;51.160;4.146;2023-09-19T01:21:15;18.80;94.20
43346;DHT22;28937;51.160;4.146;2023-09-19T01:29:46;18.70;94.50
43346;DHT22;28937;51.160;4.146;2023-09-19T01:32:15;18.70;94.50
43346;DHT22;28937;51.160;4.146;2023-09-19T01:34:55;18.70;94.60
43346;DHT22;28937;51.160;4.146;2023-09-19T01:37:24;18.80;94.60
43346;DHT22;28937;51.160;4.146;2023-09-19T01:39:58;18.70;94.50
43346;DHT22;28937;51.160;4.146;2023-09-19T01:43:01;18.70;94.70
43346;DHT22;28937;51.160;4.146;2023-09-19T01:48:05;18.70;94.80
43346;DHT22;28937;51.160;4.146;2023-09-19T01:50:43;18.70;95.20
43346;DHT22;28937;51.160;4.146;2023-09-19T01:53:22;18.70;94.90
43346;DHT22;28937;51.160;4.146;2023-09-19T01:55:50;18.70;94.90
43346;DHT22;28937;51.160;4.146;2023-09-19T02:00:48;18.60;95.10
43346;DHT22;28937;51.160;4.146;2023-09-19T02:03:17;18.60;95.10
43346;DHT22;28937;51.160;4.146;2023-09-19T02:05:49;18.60;95.20
43346;DHT22;28937;51.160;4.146;2023-09-19T02:08:19;18.70;95.30
43346;DHT22;28937;51.160;4.146;2023-09-19T02:10:45;18.60;95.30
43346;DHT22;28937;51.160;4.146;2023-09-19T02:13:16;18.60;95.50
43346;DHT22;28937;51.160;4.146;2023-09-19T02:15:42;18.60;95.60
43346;DHT22;28937;51.160;4.146;2023-09-19T02:18:10;18.60;95.70
43346;DHT22;28937;51.160;4.146;2023-09-19T02:20:35;18.50;95.80
43346;DHT22;28937;51.160;4.146;2023-09-19T02:23:01;18.50;95.90
43346;DHT22;28937;51.160;4.146;2023-09-19T02:25:28;18.50;95.90
43346;DHT22;28937;51.160;4.146;2023-09-19T02:27:53;18.50;95.90
43346;DHT22;28937;51.160;4.146;2023-09-19T02:30:24;18.60;96.00
43346;DHT22;28937;51.160;4.146;2023-09-19T02:32:51;18.50;95.90
43346;DHT22;28937;51.160;4.146;2023-09-19T02:35:17;18.50;95.80
43346;DHT22;28937;51.160;4.146;2023-09-19T02:37:45;18.50;95.90
43346;DHT22;28937;51.160;4.146;2023-09-19T02:40:11;18.50;96.00
43346;DHT22;28937;51.160;4.146;2023-09-19T02:42:47;18.50;95.90
43346;DHT22;28937;51.160;4.146;2023-09-19T02:45:18;18.50;95.90
43346;DHT22;28937;51.160;4.146;2023-09-19T02:47:44;18.50;95.90
43346;DHT22;28937;51.160;4.146;2023-09-19T02:50:10;18.50;95.90
43346;DHT22;28937;51.160;4.146;2023-09-19T02:52:37;18.50;95.90
43346;DHT22;28937;51.160;4.146;2023-09-19T02:55:03;18.50;95.90
43346;DHT22;28937;51.160;4.146;2023-09-19T02:57:31;18.50;96.00
43346;DHT22;28937;51.160;4.146;2023-09-19T02:59:59;18.50;96.00
43346;DHT22;28937;51.160;4.146;2023-09-19T03:02:26;18.50;96.10
43346;DHT22;28937;51.160;4.146;2023-09-19T03:04:53;18.60;96.10
43346;DHT22;28937;51.160;4.146;2023-09-19T03:07:19;18.60;96.20
43346;DHT22;28937;51.160;4.146;2023-09-19T03:09:45;18.50;96.20
43346;DHT22;28937;51.160;4.146;2023-09-19T03:12:11;18.50;96.30
43346;DHT22;28937;51.160;4.146;2023-09-19T03:14:36;18.50;96.30
43346;DHT22;28937;51.160;4.146;2023-09-19T03:17:02;18.50;96.40
43346;DHT22;28937;51.160;4.146;2023-09-19T03:19:31;18.60;96.50
43346;DHT22;28937;51.160;4.146;2023-09-19T03:21:59;18.60;96.60
43346;DHT22;28937;51.160;4.146;2023-09-19T03:24:25;18.60;96.80
43346;DHT22;28937;51.160;4.146;2023-09-19T03:26:51;18.60;97.50
43346;DHT22;28937;51.160;4.146;2023-09-19T03:29:17;18.50;97.90
43346;DHT22;28937;51.160;4.146;2023-09-19T03:31:43;18.60;98.20
43346;DHT22;28937;51.160;4.146;2023-09-19T03:34:09;18.50;98.20
43346;DHT22;28937;51.160;4.146;2023-09-19T03:36:35;18.50;98.50
43346;DHT22;28937;51.160;4.146;2023-09-19T03:39:01;18.50;98.60
43346;DHT22;28937;51.160;4.146;2023-09-19T03:41:27;18.50;98.60
43346;DHT22;28937;51.160;4.146;2023-09-19T03:43:52;18.40;98.80
43346;DHT22;28937;51.160;4.146;2023-09-19T03:46:18;18.50;98.80
43346;DHT22;28937;51.160;4.146;2023-09-19T03:48:44;18.40;99.20
43346;DHT22;28937;51.160;4.146;2023-09-19T03:51:09;18.40;99.20
43346;DHT22;28937;51.160;4.146;2023-09-19T03:53:36;18.40;99.30
43346;DHT22;28937;51.160;4.146;2023-09-19T03:56:01;18.30;99.50
43346;DHT22;28937;51.160;4.146;2023-09-19T03:58:28;18.30;99.50
43346;DHT22;28937;51.160;4.146;2023-09-19T04:00:56;18.30;99.50
43346;DHT22;28937;51.160;4.146;2023-09-19T04:03:23;18.40;99.50
43346;DHT22;28937;51.160;4.146;2023-09-19T04:05:50;18.30;99.50
43346;DHT22;28937;51.160;4.146;2023-09-19T04:08:16;18.30;99.80
43346;DHT22;28937;51.160;4.146;2023-09-19T04:10:42;18.30;99.70
43346;DHT22;28937;51.160;4.146;2023-09-19T04:13:09;18.20;99.60
43346;DHT22;28937;51.160;4.146;2023-09-19T04:15:34;18.30;99.60
43346;DHT22;28937;51.160;4.146;2023-09-19T04:18:00;18.20;99.50
43346;DHT22;28937;51.160;4.146;2023-09-19T04:20:25;18.20;99.50
43346;DHT22;28937;51.160;4.146;2023-09-19T04:22:51;18.20;99.70
43346;DHT22;28937;51.160;4.146;2023-09-19T04:25:17;18.20;99.70
43346;DHT22;28937;51.160;4.146;2023-09-19T04:27:44;18.20;99.60
43346;DHT22;28937;51.160;4.146;2023-09-19T04:30:10;18.10;99.70
43346;DHT22;28937;51.160;4.146;2023-09-19T04:32:37;18.10;99.70
43346;DHT22;28937;51.160;4.146;2023-09-19T04:35:09;18.10;99.80
43346;DHT22;28937;51.160;4.146;2023-09-19T04:37:39;18.10;99.90
43346;DHT22;28937;51.160;4.146;2023-09-19T04:40:09;18.10;99.80
43346;DHT22;28937;51.160;4.146;2023-09-19T04:42:39;18.10;99.70
43346;DHT22;28937;51.160;4.146;2023-09-19T04:45:05;18.10;99.70
43346;DHT22;28937;51.160;4.146;2023-09-19T04:47:31;18.00;99.80
43346;DHT22;28937;51.160;4.146;2023-09-19T04:49:57;18.20;99.90
43346;DHT22;28937;51.160;4.146;2023-09-19T04:52:24;18.60;99.90
43346;DHT22;28937;51.160;4.146;2023-09-19T04:54:50;18.90;99.90
43346;DHT22;28937;51.160;4.146;2023-09-19T04:57:15;19.00;99.70
43346;DHT22;28937;51.160;4.146;2023-09-19T04:59:41;19.10;99.50
43346;DHT22;28937;51.160;4.146;2023-09-19T05:02:07;19.20;99.40
43346;DHT22;28937;51.160;4.146;2023-09-19T05:04:37;19.20;99.40
43346;DHT22;28937;51.160;4.146;2023-09-19T05:07:03;19.30;99.30
43346;DHT22;28937;51.160;4.146;2023-09-19T05:09:29;19.30;99.30
43346;DHT22;28937;51.160;4.146;2023-09-19T05:11:54;19.30;99.20
43346;DHT22;28937;51.160;4.146;2023-09-19T05:14:21;19.30;99.20
43346;DHT22;28937;51.160;4.146;2023-09-19T05:16:47;19.30;99.10
43346;DHT22;28937;51.160;4.146;2023-09-19T05:19:13;19.30;99.20
43346;DHT22;28937;51.160;4.146;2023-09-19T05:21:39;19.40;99.20
43346;DHT22;28937;51.160;4.146;2023-09-19T05:24:05;19.40;99.20
43346;DHT22;28937;51.160;4.146;2023-09-19T05:26:32;19.40;99.10
43346;DHT22;28937;51.160;4.146;2023-09-19T05:28:58;19.40;99.30
43346;DHT22;28937;51.160;4.146;2023-09-19T05:31:23;19.30;99.20
43346;DHT22;28937;51.160;4.146;2023-09-19T05:33:51;19.40;99.60
43346;DHT22;28937;51.160;4.146;2023-09-19T05:36:20;19.40;99.40
43346;DHT22;28937;51.160;4.146;2023-09-19T05:38:45;19.40;99.40
43346;DHT22;28937;51.160;4.146;2023-09-19T05:41:14;19.30;99.40
43346;DHT22;28937;51.160;4.146;2023-09-19T05:43:40;19.20;99.60
43346;DHT22;28937;51.160;4.146;2023-09-19T05:46:07;19.00;99.20
43346;DHT22;28937;51.160;4.146;2023-09-19T05:48:33;19.00;99.80
43346;DHT22;28937;51.160;4.146;2023-09-19T05:50:59;18.90;99.60
43346;DHT22;28937;51.160;4.146;2023-09-19T05:53:27;18.90;99.90
43346;DHT22;28937;51.160;4.146;2023-09-19T05:55:52;18.90;99.80
43346;DHT22;28937;51.160;4.146;2023-09-19T05:58:19;18.90;99.90
43346;DHT22;28937;51.160;4.146;2023-09-19T06:00:45;19.00;99.90
43346;DHT22;28937;51.160;4.146;2023-09-19T06:03:13;18.90;99.60
43346;DHT22;28937;51.160;4.146;2023-09-19T06:05:40;18.80;99.60
43346;DHT22;28937;51.160;4.146;2023-09-19T06:08:08;18.70;99.50
43346;DHT22;28937;51.160;4.146;2023-09-19T06:10:35;18.80;99.80
43346;DHT22;28937;51.160;4.146;2023-09-19T06:13:04;18.80;99.70
43346;DHT22;28937;51.160;4.146;2023-09-19T06:15:35;18.70;99.60
43346;DHT22;28937;51.160;4.146;2023-09-19T06:18:01;18.70;99.60
43346;DHT22;28937;51.160;4.146;2023-09-19T06:20:30;18.50;99.60
43346;DHT22;28937;51.160;4.146;2023-09-19T06:22:57;18.50;99.70
43346;DHT22;28937;51.160;4.146;2023-09-19T06:25:23;18.30;99.90
43346;DHT22;28937;51.160;4.146;2023-09-19T06:27:49;18.30;99.90
43346;DHT22;28937;51.160;4.146;2023-09-19T06:30:18;18.20;99.90
43346;DHT22;28937;51.160;4.146;2023-09-19T06:32:43;18.20;99.90
43346;DHT22;28937;51.160;4.146;2023-09-19T06:35:13;18.20;99.90
43346;DHT22;28937;51.160;4.146;2023-09-19T06:37:39;18.20;99.90
43346;DHT22;28937;51.160;4.146;2023-09-19T06:40:12;18.20;99.90
43346;DHT22;28937;51.160;4.146;2023-09-19T06:42:50;18.20;99.90
43346;DHT22;28937;51.160;4.146;2023-09-19T06:45:16;18.10;99.90
43346;DHT22;28937;51.160;4.146;2023-09-19T06:47:51;18.10;99.90
43346;DHT22;28937;51.160;4.146;2023-09-19T06:50:21;18.10;99.90
43346;DHT22;28937;51.160;4.146;2023-09-19T06:52:52;18.10;99.90
43346;DHT22;28937;51.160;4.146;2023-09-19T06:55:20;18.10;99.90
43346;DHT22;28937;51.160;4.146;2023-09-19T06:57:46;18.10;99.90
43346;DHT22;28937;51.160;4.146;2023-09-19T07:00:13;18.10;99.90
43346;DHT22;28937;51.160;4.146;2023-09-19T07:05:22;18.10;99.90
43346;DHT22;28937;51.160;4.146;2023-09-19T07:07:47;18.40;99.90
43346;DHT22;28937;51.160;4.146;2023-09-19T07:10:13;18.60;99.90
43346;DHT22;28937;51.160;4.146;2023-09-19T07:12:39;18.70;99.90
43346;DHT22;28937;51.160;4.146;2023-09-19T07:15:06;18.60;99.90
43346;DHT22;28937;51.160;4.146;2023-09-19T07:17:32;18.50;99.90
43346;DHT22;28937;51.160;4.146;2023-09-19T07:19:58;18.50;99.90
43346;DHT22;28937;51.160;4.146;2023-09-19T07:22:26;18.50;99.90
43346;DHT22;28937;51.160;4.146;2023-09-19T07:24:51;18.50;99.90
43346;DHT22;28937;51.160;4.146;2023-09-19T07:27:17;18.50;99.90
43346;DHT22;28937;51.160;4.146;2023-09-19T07:29:43;18.50;99.90
43346;DHT22;28937;51.160;4.146;2023-09-19T07:32:08;18.50;99.90
43346;DHT22;28937;51.160;4.146;2023-09-19T07:34:35;18.60;99.90
43346;DHT22;28937;51.160;4.146;2023-09-19T07:37:01;18.60;99.90
43346;DHT22;28937;51.160;4.146;2023-09-19T07:39:28;18.60;99.90
43346;DHT22;28937;51.160;4.146;2023-09-19T07:41:53;18.60;99.90
43346;DHT22;28937;51.160;4.146;2023-09-19T07:44:19;18.60;99.90
43346;DHT22;28937;51.160;4.146;2023-09-19T07:46:45;18.80;99.90
43346;DHT22;28937;51.160;4.146;2023-09-19T07:49:11;18.90;99.90
43346;DHT22;28937;51.160;4.146;2023-09-19T07:51:36;18.90;99.90
43346;DHT22;28937;51.160;4.146;2023-09-19T07:54:02;18.90;99.90
43346;DHT22;28937;51.160;4.146;2023-09-19T07:56:28;18.90;99.90
43346;DHT22;28937;51.160;4.146;2023-09-19T07:58:53;18.90;99.90
43346;DHT22;28937;51.160;4.146;2023-09-19T08:01:19;19.00;99.90
43346;DHT22;28937;51.160;4.146;2023-09-19T08:03:45;19.10;99.90
43346;DHT22;28937;51.160;4.146;2023-09-19T08:06:10;19.10;99.90
43346;DHT22;28937;51.160;4.146;2023-09-19T08:08:37;19.10;99.90
43346;DHT22;28937;51.160;4.146;2023-09-19T08:11:04;19.20;99.90
43346;DHT22;28937;51.160;4.146;2023-09-19T08:13:36;19.10;99.90
43346;DHT22;28937;51.160;4.146;2023-09-19T08:16:03;19.10;99.90
43346;DHT22;28937;51.160;4.146;2023-09-19T08:18:30;19.10;99.90
43346;DHT22;28937;51.160;4.146;2023-09-19T08:20:55;19.10;99.90
43346;DHT22;28937;51.160;4.146;2023-09-19T08:23:24;19.20;99.90
43346;DHT22;28937;51.160;4.146;2023-09-19T08:25:49;19.20;99.90
43346;DHT22;28937;51.160;4.146;2023-09-19T08:28:15;19.20;99.90
43346;DHT22;28937;51.160;4.146;2023-09-19T08:30:45;19.20;99.90
43346;DHT22;28937;51.160;4.146;2023-09-19T08:33:11;19.30;99.90
43346;DHT22;28937;51.160;4.146;2023-09-19T08:35:37;19.30;99.90
43346;DHT22;28937;51.160;4.146;2023-09-19T08:38:05;19.40;99.90
43346;DHT22;28937;51.160;4.146;2023-09-19T08:40:32;19.30;99.90
43346;DHT22;28937;51.160;4.146;2023-09-19T08:42:59;19.40;99.90
43346;DHT22;28937;51.160;4.146;2023-09-19T08:45:26;19.40;99.70
43346;DHT22;28937;51.160;4.146;2023-09-19T08:51:00;19.40;99.70
43346;DHT22;28937;51.160;4.146;2023-09-19T08:55:54;19.50;99.70
43346;DHT22;28937;51.160;4.146;2023-09-19T08:58:26;19.40;99.60
43346;DHT22;28937;51.160;4.146;2023-09-19T09:00:55;19.40;99.60
43346;DHT22;28937;51.160;4.146;2023-09-19T09:03:22;19.50;99.60
43346;DHT22;28937;51.160;4.146;2023-09-19T09:05:50;19.40;99.60
43346;DHT22;28937;51.160;4.146;2023-09-19T09:08:17;19.50;99.50
43346;DHT22;28937;51.160;4.146;2023-09-19T09:10:45;19.50;99.40
43346;DHT22;28937;51.160;4.146;2023-09-19T09:13:11;19.50;99.60
43346;DHT22;28937;51.160;4.146;2023-09-19T09:15:41;19.60;99.50
43346;DHT22;28937;51.160;4.146;2023-09-19T09:18:06;19.60;99.80
43346;DHT22;28937;51.160;4.146;2023-09-19T09:20:32;19.60;99.90
43346;DHT22;28937;51.160;4.146;2023-09-19T09:22:58;19.70;99.70
43346;DHT22;28937;51.160;4.146;2023-09-19T09:25:48;19.70;99.90
43346;DHT22;28937;51.160;4.146;2023-09-19T09:28:21;19.70;99.80
43346;DHT22;28937;51.160;4.146;2023-09-19T09:30:47;19.80;99.20
43346;DHT22;28937;51.160;4.146;2023-09-19T09:33:14;19.80;99.40
43346;DHT22;28937;51.160;4.146;2023-09-19T09:35:52;19.70;99.60
43346;DHT22;28937;51.160;4.146;2023-09-19T09:38:25;19.80;98.90
43346;DHT22;28937;51.160;4.146;2023-09-19T09:40:54;19.70;98.50
43346;DHT22;28937;51.160;4.146;2023-09-19T09:54:24;19.90;99.10
43346;DHT22;28937;51.160;4.146;2023-09-19T09:57:03;19.80;98.60
43346;DHT22;28937;51.160;4.146;2023-09-19T09:59:53;19.80;98.30
43346;DHT22;28937;51.160;4.146;2023-09-19T10:02:30;19.80;98.40
43346;DHT22;28937;51.160;4.146;2023-09-19T10:05:16;19.90;98.20
43346;DHT22;28937;51.160;4.146;2023-09-19T10:07:54;19.90;98.30
43346;DHT22;28937;51.160;4.146;2023-09-19T10:10:33;19.80;98.30
43346;DHT22;28937;51.160;4.146;2023-09-19T10:13:13;19.90;98.30
43346;DHT22;28937;51.160;4.146;2023-09-19T10:15:42;19.80;98.20
43346;DHT22;28937;51.160;4.146;2023-09-19T10:18:24;19.90;98.20
43346;DHT22;28937;51.160;4.146;2023-09-19T10:20:50;19.90;98.40
43346;DHT22;28937;51.160;4.146;2023-09-19T10:23:20;19.90;98.40
43346;DHT22;28937;51.160;4.146;2023-09-19T10:25:49;19.90;98.60
43346;DHT22;28937;51.160;4.146;2023-09-19T10:28:17;20.00;98.40
43346;DHT22;28937;51.160;4.146;2023-09-19T10:30:48;20.00;98.10
43346;DHT22;28937;51.160;4.146;2023-09-19T10:33:16;20.00;98.20
43346;DHT22;28937;51.160;4.146;2023-09-19T10:35:44;20.00;98.40
43346;DHT22;28937;51.160;4.146;2023-09-19T10:38:11;20.00;98.40
43346;DHT22;28937;51.160;4.146;2023-09-19T10:40:37;20.00;98.50
43346;DHT22;28937;51.160;4.146;2023-09-19T10:43:06;20.10;98.50
43346;DHT22;28937;51.160;4.146;2023-09-19T10:45:34;20.10;98.30
43346;DHT22;28937;51.160;4.146;2023-09-19T10:48:00;20.10;98.30
43346;DHT22;28937;51.160;4.146;2023-09-19T10:50:57;20.20;98.50
43346;DHT22;28937;51.160;4.146;2023-09-19T10:53:26;20.20;98.20
43346;DHT22;28937;51.160;4.146;2023-09-19T10:55:55;20.20;97.90
43346;DHT22;28937;51.160;4.146;2023-09-19T10:58:31;20.20;98.10
43346;DHT22;28937;51.160;4.146;2023-09-19T11:01:00;20.20;98.10
43346;DHT22;28937;51.160;4.146;2023-09-19T11:03:33;20.20;98.00
43346;DHT22;28937;51.160;4.146;2023-09-19T11:06:10;20.20;98.00
43346;DHT22;28937;51.160;4.146;2023-09-19T11:08:59;20.30;98.20
43346;DHT22;28937;51.160;4.146;2023-09-19T11:30:41;20.40;97.70
43346;DHT22;28937;51.160;4.146;2023-09-19T11:33:27;20.40;97.80
43346;DHT22;28937;51.160;4.146;2023-09-19T11:36:04;20.50;97.90
43346;DHT22;28937;51.160;4.146;2023-09-19T11:43:48;20.60;98.00
43346;DHT22;28937;51.160;4.146;2023-09-19T11:46:16;20.60;97.70
43346;DHT22;28937;51.160;4.146;2023-09-19T11:48:48;20.60;97.70
43346;DHT22;28937;51.160;4.146;2023-09-19T11:51:16;20.60;98.00
43346;DHT22;28937;51.160;4.146;2023-09-19T11:53:47;20.60;97.50
43346;DHT22;28937;51.160;4.146;2023-09-19T11:56:19;20.60;97.50
43346;DHT22;28937;51.160;4.146;2023-09-19T11:58:46;20.70;97.30
43346;DHT22;28937;51.160;4.146;2023-09-19T12:01:15;20.70;97.20
43346;DHT22;28937;51.160;4.146;2023-09-19T12:03:47;20.70;97.30
43346;DHT22;28937;51.160;4.146;2023-09-19T12:06:17;20.70;97.40
43346;DHT22;28937;51.160;4.146;2023-09-19T12:08:44;20.70;97.30
43346;DHT22;28937;51.160;4.146;2023-09-19T12:11:15;20.70;97.30
43346;DHT22;28937;51.160;4.146;2023-09-19T12:13:45;20.70;97.30
43346;DHT22;28937;51.160;4.146;2023-09-19T12:16:16;20.80;97.50
43346;DHT22;28937;51.160;4.146;2023-09-19T12:18:42;20.80;97.30
43346;DHT22;28937;51.160;4.146;2023-09-19T12:26:30;20.80;97.30
43346;DHT22;28937;51.160;4.146;2023-09-19T12:29:03;20.80;97.10
43346;DHT22;28937;51.160;4.146;2023-09-19T12:31:31;20.80;97.00
43346;DHT22;28937;51.160;4.146;2023-09-19T12:34:01;20.80;96.90
43346;DHT22;28937;51.160;4.146;2023-09-19T12:36:27;20.90;97.00
43346;DHT22;28937;51.160;4.146;2023-09-19T12:38:56;20.90;97.00
43346;DHT22;28937;51.160;4.146;2023-09-19T12:41:25;20.90;97.00
43346;DHT22;28937;51.160;4.146;2023-09-19T12:43:53;20.90;97.20
43346;DHT22;28937;51.160;4.146;2023-09-19T12:46:22;20.90;97.10
43346;DHT22;28937;51.160;4.146;2023-09-19T12:51:43;21.00;97.10
43346;DHT22;28937;51.160;4.146;2023-09-19T12:54:09;21.00;97.20
43346;DHT22;28937;51.160;4.146;2023-09-19T12:56:43;21.00;97.10
43346;DHT22;28937;51.160;4.146;2023-09-19T12:59:13;21.00;96.90
43346;DHT22;28937;51.160;4.146;2023-09-19T13:01:41;21.00;96.90
43346;DHT22;28937;51.160;4.146;2023-09-19T13:04:16;21.10;96.80
43346;DHT22;28937;51.160;4.146;2023-09-19T13:06:49;21.00;96.70
43346;DHT22;28937;51.160;4.146;2023-09-19T13:09:20;21.10;96.80
43346;DHT22;28937;51.160;4.146;2023-09-19T13:11:46;21.10;96.70
43346;DHT22;28937;51.160;4.146;2023-09-19T13:14:16;21.10;96.60
43346;DHT22;28937;51.160;4.146;2023-09-19T13:17:05;21.10;96.80
43346;DHT22;28937;51.160;4.146;2023-09-19T13:19:46;21.10;96.70
43346;DHT22;28937;51.160;4.146;2023-09-19T13:22:37;21.10;96.70
43346;DHT22;28937;51.160;4.146;2023-09-19T13:25:07;21.10;96.80
43346;DHT22;28937;51.160;4.146;2023-09-19T13:27:33;21.10;96.80
43346;DHT22;28937;51.160;4.146;2023-09-19T13:29:59;21.10;96.60
43346;DHT22;28937;51.160;4.146;2023-09-19T13:32:25;21.20;96.50
43346;DHT22;28937;51.160;4.146;2023-09-19T13:34:51;21.20;97.00
43346;DHT22;28937;51.160;4.146;2023-09-19T13:37:17;21.20;96.90
43346;DHT22;28937;51.160;4.146;2023-09-19T13:39:44;21.20;97.00
43346;DHT22;28937;51.160;4.146;2023-09-19T13:42:13;21.30;96.90
43346;DHT22;28937;51.160;4.146;2023-09-19T13:44:39;21.30;96.90
43346;DHT22;28937;51.160;4.146;2023-09-19T13:47:06;21.30;97.00
43346;DHT22;28937;51.160;4.146;2023-09-19T13:49:36;21.30;96.70
43346;DHT22;28937;51.160;4.146;2023-09-19T13:52:02;21.30;97.10
43346;DHT22;28937;51.160;4.146;2023-09-19T13:54:33;21.30;96.80
43346;DHT22;28937;51.160;4.146;2023-09-19T13:56:58;21.30;96.90
43346;DHT22;28937;51.160;4.146;2023-09-19T13:59:24;21.30;97.00
43346;DHT22;28937;51.160;4.146;2023-09-19T14:01:50;21.30;97.00
43346;DHT22;28937;51.160;4.146;2023-09-19T14:04:16;21.30;96.80
43346;DHT22;28937;51.160;4.146;2023-09-19T14:06:42;21.30;97.00
43346;DHT22;28937;51.160;4.146;2023-09-19T14:09:08;21.40;97.30
43346;DHT22;28937;51.160;4.146;2023-09-19T14:11:36;21.40;97.20
43346;DHT22;28937;51.160;4.146;2023-09-19T14:14:01;21.40;97.40
43346;DHT22;28937;51.160;4.146;2023-09-19T14:16:27;21.40;97.40
43346;DHT22;28937;51.160;4.146;2023-09-19T14:18:56;21.40;97.50
43346;DHT22;28937;51.160;4.146;2023-09-19T14:21:22;21.50;97.50
43346;DHT22;28937;51.160;4.146;2023-09-19T14:23:48;21.40;97.10
43346;DHT22;28937;51.160;4.146;2023-09-19T14:26:15;21.50;97.30
43346;DHT22;28937;51.160;4.146;2023-09-19T14:28:41;21.50;97.00
43346;DHT22;28937;51.160;4.146;2023-09-19T14:31:08;21.50;96.90
43346;DHT22;28937;51.160;4.146;2023-09-19T14:33:34;21.50;96.80
43346;DHT22;28937;51.160;4.146;2023-09-19T14:36:08;21.50;96.90
43346;DHT22;28937;51.160;4.146;2023-09-19T14:38:36;21.50;97.10
43346;DHT22;28937;51.160;4.146;2023-09-19T14:41:05;21.50;97.50
43346;DHT22;28937;51.160;4.146;2023-09-19T14:43:31;21.50;97.10
43346;DHT22;28937;51.160;4.146;2023-09-19T14:46:02;21.50;97.00
43346;DHT22;28937;51.160;4.146;2023-09-19T14:48:28;21.50;96.90
43346;DHT22;28937;51.160;4.146;2023-09-19T14:50:54;21.50;96.90
43346;DHT22;28937;51.160;4.146;2023-09-19T14:53:21;21.50;96.80
43346;DHT22;28937;51.160;4.146;2023-09-19T14:55:46;21.50;96.90
43346;DHT22;28937;51.160;4.146;2023-09-19T14:58:13;21.50;96.80
43346;DHT22;28937;51.160;4.146;2023-09-19T15:00:39;21.50;96.80
43346;DHT22;28937;51.160;4.146;2023-09-19T15:03:05;21.60;97.20
43346;DHT22;28937;51.160;4.146;2023-09-19T15:05:31;21.60;97.00
43346;DHT22;28937;51.160;4.146;2023-09-19T15:07:57;21.50;96.60
43346;DHT22;28937;51.160;4.146;2023-09-19T15:10:23;21.50;96.50
43346;DHT22;28937;51.160;4.146;2023-09-19T15:12:49;21.50;96.70
43346;DHT22;28937;51.160;4.146;2023-09-19T15:15:15;21.50;96.80
43346;DHT22;28937;51.160;4.146;2023-09-19T15:17:41;21.50;96.60
43346;DHT22;28937;51.160;4.146;2023-09-19T15:20:07;21.60;96.90
43346;DHT22;28937;51.160;4.146;2023-09-19T15:22:33;21.50;96.50
43346;DHT22;28937;51.160;4.146;2023-09-19T15:25:01;21.50;96.60
43346;DHT22;28937;51.160;4.146;2023-09-19T15:27:28;21.50;96.50
43346;DHT22;28937;51.160;4.146;2023-09-19T15:29:56;21.50;96.90
43346;DHT22;28937;51.160;4.146;2023-09-19T15:32:24;21.50;96.50
43346;DHT22;28937;51.160;4.146;2023-09-19T15:34:49;21.60;96.90
43346;DHT22;28937;51.160;4.146;2023-09-19T15:37:15;21.50;96.60
43346;DHT22;28937;51.160;4.146;2023-09-19T15:39:41;21.50;97.70
43346;DHT22;28937;51.160;4.146;2023-09-19T15:42:07;21.60;99.40
43346;DHT22;28937;51.160;4.146;2023-09-19T15:44:33;21.50;97.20
43346;DHT22;28937;51.160;4.146;2023-09-19T15:46:59;21.60;98.10
43346;DHT22;28937;51.160;4.146;2023-09-19T15:49:25;21.60;97.30
43346;DHT22;28937;51.160;4.146;2023-09-19T15:51:50;21.50;97.40
43346;DHT22;28937;51.160;4.146;2023-09-19T15:54:17;21.50;97.10
43346;DHT22;28937;51.160;4.146;2023-09-19T15:56:44;21.50;96.90
43346;DHT22;28937;51.160;4.146;2023-09-19T15:59:11;21.50;97.00
43346;DHT22;28937;51.160;4.146;2023-09-19T16:01:41;21.50;96.90
43346;DHT22;28937;51.160;4.146;2023-09-19T16:04:08;21.60;97.60
43346;DHT22;28937;51.160;4.146;2023-09-19T16:06:34;21.60;98.30
43346;DHT22;28937;51.160;4.146;2023-09-19T16:09:00;21.60;97.70
43346;DHT22;28937;51.160;4.146;2023-09-19T16:11:29;21.60;97.60
43346;DHT22;28937;51.160;4.146;2023-09-19T16:13:55;21.50;97.30
43346;DHT22;28937;51.160;4.146;2023-09-19T16:16:22;21.50;97.10
43346;DHT22;28937;51.160;4.146;2023-09-19T16:18:50;21.50;97.60
43346;DHT22;28937;51.160;4.146;2023-09-19T16:21:24;21.50;98.10
43346;DHT22;28937;51.160;4.146;2023-09-19T16:23:52;21.60;98.20
43346;DHT22;28937;51.160;4.146;2023-09-19T16:26:19;21.60;97.50
43346;DHT22;28937;51.160;4.146;2023-09-19T16:28:47;21.50;97.60
43346;DHT22;28937;51.160;4.146;2023-09-19T16:31:13;21.50;97.20
43346;DHT22;28937;51.160;4.146;2023-09-19T16:33:40;21.50;97.60
43346;DHT22;28937;51.160;4.146;2023-09-19T16:36:10;21.50;97.10
43346;DHT22;28937;51.160;4.146;2023-09-19T16:38:37;21.50;97.80
43346;DHT22;28937;51.160;4.146;2023-09-19T16:41:04;21.50;97.80
43346;DHT22;28937;51.160;4.146;2023-09-19T16:43:31;21.50;97.20